createdAt,value
2023-08-16T00:00:31.045Z,96385.78
2023-08-16T00:02:57.781Z,96384.28
2023-08-16T00:05:24.479Z,96383.91
2023-08-16T00:14:00.113Z,96396.69
2023-08-16T00:16:46.892Z,96387.88
2023-08-16T00:19:13.582Z,96382.91
2023-08-16T00:21:40.522Z,96385.75
2023-08-16T00:24:07.194Z,96390.13
2023-08-16T00:26:34.107Z,96389.06
2023-08-16T00:29:02.320Z,96388.94
2023-08-16T00:31:30.470Z,96392.69
2023-08-16T00:43:42.953Z,96386.81
2023-08-16T00:46:15.847Z,96385.41
2023-08-16T00:52:05.994Z,96380.00
2023-08-16T00:57:26.667Z,96382.59
2023-08-16T00:59:55.937Z,96384.78
2023-08-16T01:02:23.135Z,96377.72
2023-08-16T01:04:49.728Z,96373.06
2023-08-16T01:07:18.963Z,96375.63
2023-08-16T01:09:45.762Z,96378.69
2023-08-16T01:12:12.425Z,96375.38
2023-08-16T01:14:39.023Z,96371.91
2023-08-16T01:17:05.943Z,96373.78
2023-08-16T01:19:32.847Z,96370.94
2023-08-16T01:21:59.559Z,96377.63
2023-08-16T01:24:28.625Z,96369.19
2023-08-16T01:26:55.271Z,96375.31
2023-08-16T01:29:21.948Z,96378.63
2023-08-16T01:31:48.656Z,96376.88
2023-08-16T01:34:15.388Z,96378.94
2023-08-16T01:36:42.034Z,96384.44
2023-08-16T01:39:09.599Z,96379.53
2023-08-16T01:41:36.633Z,96376.63
2023-08-16T01:44:03.263Z,96374.25
2023-08-16T01:46:30.356Z,96373.09
2023-08-16T01:48:57.447Z,96379.22
2023-08-16T01:54:39.825Z,96368.56
2023-08-16T01:57:06.795Z,96367.63
2023-08-16T02:02:36.288Z,96364.63
2023-08-16T02:05:03.896Z,96368.31
2023-08-16T02:07:30.770Z,96368.63
2023-08-16T02:09:59.408Z,96367.75
2023-08-16T02:12:26.036Z,96374.38
2023-08-16T02:14:53.635Z,96373.47
2023-08-16T02:17:20.323Z,96373.19
2023-08-16T02:19:47.211Z,96366.22
2023-08-16T02:22:14.022Z,96367.56
2023-08-16T02:24:40.716Z,96365.94
2023-08-16T02:27:07.397Z,96371.81
2023-08-16T02:29:34.292Z,96362.53
2023-08-16T02:32:01.146Z,96364.50
2023-08-16T02:34:27.760Z,96363.78
2023-08-16T02:36:54.682Z,96366.75
2023-08-16T02:39:22.025Z,96371.13
2023-08-16T02:41:51.210Z,96356.47
2023-08-16T02:44:18.665Z,96360.88
2023-08-16T02:46:45.360Z,96357.69
2023-08-16T02:49:13.052Z,96349.69
2023-08-16T02:51:39.712Z,96362.16
2023-08-16T02:54:06.729Z,96362.13
2023-08-16T02:56:33.315Z,96359.41
2023-08-16T02:58:59.980Z,96356.19
2023-08-16T03:01:26.658Z,96354.69
2023-08-16T03:03:53.313Z,96352.31
2023-08-16T03:06:19.994Z,96362.06
2023-08-16T03:08:46.998Z,96355.94
2023-08-16T03:11:13.900Z,96357.88
2023-08-16T03:13:40.494Z,96354.47
2023-08-16T03:16:07.586Z,96357.16
2023-08-16T03:18:34.466Z,96358.19
2023-08-16T03:21:01.418Z,96369.19
2023-08-16T03:23:27.988Z,96367.00
2023-08-16T03:29:12.381Z,96358.19
2023-08-16T03:31:40.142Z,96359.94
2023-08-16T03:34:08.819Z,96362.63
2023-08-16T03:36:38.567Z,96363.13
2023-08-16T03:39:05.166Z,96365.31
2023-08-16T03:41:32.075Z,96357.66
2023-08-16T03:43:58.958Z,96365.22
2023-08-16T03:46:25.855Z,96365.03
2023-08-16T03:48:52.995Z,96366.03
2023-08-16T03:51:19.991Z,96380.94
2023-08-16T03:53:46.627Z,96378.16
2023-08-16T03:56:13.351Z,96374.44
2023-08-16T03:58:40.882Z,96375.44
2023-08-16T04:01:07.444Z,96375.81
2023-08-16T04:03:34.405Z,96384.28
2023-08-16T04:06:01.190Z,96383.84
2023-08-16T04:08:28.213Z,96382.91
2023-08-16T04:10:57.341Z,96381.13
2023-08-16T04:13:44.287Z,96391.19
2023-08-16T04:16:31.250Z,96387.50
2023-08-16T04:18:57.949Z,96391.44
2023-08-16T04:21:24.619Z,96398.72
2023-08-16T04:23:51.596Z,96394.63
2023-08-16T04:26:18.317Z,96401.69
2023-08-16T04:28:47.395Z,96397.25
2023-08-16T04:31:14.350Z,96397.28
2023-08-16T04:33:40.987Z,96396.81
2023-08-16T04:36:09.841Z,96401.47
2023-08-16T04:38:38.088Z,96396.81
2023-08-16T04:41:05.423Z,96405.59
2023-08-16T04:43:32.957Z,96402.66
2023-08-16T04:46:03.206Z,96397.34
2023-08-16T04:48:30.748Z,96407.59
2023-08-16T04:50:57.676Z,96399.97
2023-08-16T04:53:24.263Z,96396.34
2023-08-16T04:55:51.438Z,96396.34
2023-08-16T04:58:19.225Z,96404.16
2023-08-16T05:00:45.805Z,96417.06
2023-08-16T05:03:12.701Z,96417.03
2023-08-16T05:05:40.104Z,96415.28
2023-08-16T05:08:07.121Z,96413.97
2023-08-16T05:10:33.953Z,96412.66
2023-08-16T05:13:02.229Z,96412.75
2023-08-16T05:15:29.183Z,96411.75
2023-08-16T05:17:55.837Z,96412.34
2023-08-16T05:20:23.285Z,96405.22
2023-08-16T05:22:50.940Z,96418.56
2023-08-16T05:25:17.602Z,96415.63
2023-08-16T05:27:47.499Z,96410.53
2023-08-16T05:30:14.835Z,96418.97
2023-08-16T05:32:41.608Z,96413.88
2023-08-16T05:35:08.681Z,96414.94
2023-08-16T05:37:35.731Z,96410.13
2023-08-16T05:40:02.704Z,96412.63
2023-08-16T05:42:29.896Z,96412.28
2023-08-16T05:44:56.880Z,96418.06
2023-08-16T05:47:24.011Z,96410.91
2023-08-16T05:49:51.008Z,96412.75
2023-08-16T05:52:20.944Z,96416.19
2023-08-16T05:58:05.264Z,96416.84
2023-08-16T06:00:35.311Z,96429.75
2023-08-16T06:03:02.837Z,96427.97
2023-08-16T06:05:29.801Z,96424.44
2023-08-16T06:07:56.912Z,96430.94
2023-08-16T06:13:16.867Z,96416.94
2023-08-16T06:15:43.634Z,96425.53
2023-08-16T06:18:10.343Z,96417.81
2023-08-16T06:20:38.555Z,96418.63
2023-08-16T06:23:05.557Z,96420.41
2023-08-16T06:25:34.832Z,96419.44
2023-08-16T06:28:02.958Z,96430.47
2023-08-16T06:30:29.953Z,96425.81
2023-08-16T06:32:56.904Z,96429.06
2023-08-16T06:35:24.729Z,96430.72
2023-08-16T06:37:53.208Z,96426.50
2023-08-16T06:40:20.165Z,96435.09
2023-08-16T06:42:47.086Z,96428.22
2023-08-16T06:45:13.792Z,96433.09
2023-08-16T06:47:41.433Z,96437.31
2023-08-16T06:50:08.404Z,96427.56
2023-08-16T06:52:35.362Z,96437.63
2023-08-16T06:55:02.242Z,96427.16
2023-08-16T06:57:34.143Z,96430.03
2023-08-16T07:00:01.756Z,96436.69
2023-08-16T07:02:31.106Z,96441.34
2023-08-16T07:04:58.512Z,96433.38
2023-08-16T07:10:18.947Z,96431.06
2023-08-16T07:12:47.647Z,96433.88
2023-08-16T07:15:15.572Z,96431.88
2023-08-16T07:17:42.863Z,96430.78
2023-08-16T07:20:10.788Z,96431.09
2023-08-16T07:22:37.700Z,96439.66
2023-08-16T07:25:04.462Z,96434.19
2023-08-16T07:27:31.464Z,96437.69
2023-08-16T07:29:58.294Z,96439.53
2023-08-16T07:32:25.314Z,96434.16
2023-08-16T07:34:52.143Z,96434.69
2023-08-16T07:37:19.183Z,96436.13
2023-08-16T07:39:45.795Z,96431.47
2023-08-16T07:42:14.791Z,96433.06
2023-08-16T07:44:41.691Z,96439.38
2023-08-16T07:47:08.994Z,96424.44
2023-08-16T07:49:37.945Z,96425.28
2023-08-16T07:52:04.675Z,96428.97
2023-08-16T07:54:36.020Z,96425.03
2023-08-16T07:57:03.089Z,96433.44
2023-08-16T07:59:29.862Z,96438.97
2023-08-16T08:01:56.792Z,96438.59
2023-08-16T08:04:23.794Z,96436.78
2023-08-16T08:06:50.746Z,96436.75
2023-08-16T08:12:02.279Z,96427.13
2023-08-16T08:14:30.666Z,96430.59
2023-08-16T08:16:58.313Z,96430.03
2023-08-16T08:19:25.017Z,96429.00
2023-08-16T08:21:52.749Z,96432.47
2023-08-16T08:26:53.134Z,96426.09
2023-08-16T08:29:19.859Z,96432.16
2023-08-16T08:31:51.874Z,96435.88
2023-08-16T08:34:18.805Z,96431.44
2023-08-16T08:36:45.740Z,96437.13
2023-08-16T08:39:12.409Z,96434.78
2023-08-16T08:41:47.944Z,96434.53
2023-08-16T08:44:15.240Z,96439.88
2023-08-16T08:46:42.192Z,96440.75
2023-08-16T08:49:09.044Z,96438.00
2023-08-16T08:51:36.797Z,96439.16
2023-08-16T08:54:03.712Z,96444.50
2023-08-16T08:56:31.697Z,96449.78
2023-08-16T08:59:12.969Z,96446.28
2023-08-16T09:01:42.321Z,96444.97
2023-08-16T09:04:09.434Z,96445.97
2023-08-16T09:09:10.505Z,96447.59
2023-08-16T09:11:37.226Z,96445.94
2023-08-16T09:14:04.762Z,96448.81
2023-08-16T09:16:42.109Z,96443.19
2023-08-16T09:19:08.949Z,96457.47
2023-08-16T09:21:35.811Z,96452.63
2023-08-16T09:24:02.588Z,96456.81
2023-08-16T09:26:31.323Z,96459.59
2023-08-16T09:28:58.790Z,96464.88
2023-08-16T09:31:26.041Z,96463.16
2023-08-16T09:33:55.122Z,96454.97
2023-08-16T09:36:24.085Z,96470.16
2023-08-16T09:38:51.410Z,96455.16
2023-08-16T09:41:18.098Z,96455.81
2023-08-16T09:43:47.250Z,96451.13
2023-08-16T09:46:15.263Z,96452.91
2023-08-16T09:51:12.116Z,96453.94
2023-08-16T09:53:41.341Z,96453.22
2023-08-16T09:58:40.199Z,96443.53
2023-08-16T10:03:36.514Z,96443.28
2023-08-16T10:06:03.257Z,96446.00
2023-08-16T10:08:29.950Z,96437.94
2023-08-16T10:10:57.957Z,96432.44
2023-08-16T10:13:25.657Z,96441.00
2023-08-16T10:15:52.319Z,96440.28
2023-08-16T10:18:19.570Z,96439.41
2023-08-16T10:20:46.541Z,96435.56
2023-08-16T10:23:13.507Z,96440.81
2023-08-16T10:25:40.725Z,96432.56
2023-08-16T10:28:07.652Z,96432.78
2023-08-16T10:30:35.069Z,96427.28
2023-08-16T10:33:04.156Z,96426.06
2023-08-16T10:35:30.845Z,96426.38
2023-08-16T10:37:59.831Z,96425.09
2023-08-16T10:40:27.306Z,96426.38
2023-08-16T10:42:54.287Z,96420.84
2023-08-16T10:45:20.885Z,96415.31
2023-08-16T10:47:47.878Z,96422.72
2023-08-16T10:50:16.372Z,96415.97
2023-08-16T10:52:45.100Z,96419.13
2023-08-16T10:55:15.120Z,96417.69
2023-08-16T10:57:45.519Z,96411.63
2023-08-16T11:00:12.517Z,96408.69
2023-08-16T11:02:39.361Z,96417.38
2023-08-16T11:05:06.332Z,96407.88
2023-08-16T11:07:35.641Z,96397.22
2023-08-16T11:10:02.792Z,96406.91
2023-08-16T11:12:30.547Z,96398.31
2023-08-16T11:14:58.202Z,96393.56
2023-08-16T11:17:25.427Z,96392.34
2023-08-16T11:19:52.432Z,96382.50
2023-08-16T11:22:19.579Z,96390.16
2023-08-16T11:24:46.429Z,96382.53
2023-08-16T11:27:13.861Z,96376.34
2023-08-16T11:29:40.684Z,96386.69
2023-08-16T11:32:07.978Z,96387.34
2023-08-16T11:34:34.741Z,96386.16
2023-08-16T11:37:01.769Z,96390.28
2023-08-16T11:39:28.458Z,96385.94
2023-08-16T11:41:56.543Z,96383.66
2023-08-16T11:44:24.167Z,96379.38
2023-08-16T11:46:51.121Z,96381.69
2023-08-16T11:49:17.855Z,96374.34
2023-08-16T11:51:44.735Z,96376.34
2023-08-16T11:54:11.416Z,96369.84
2023-08-16T11:59:53.635Z,96361.59
2023-08-16T12:02:23.995Z,96344.19
2023-08-16T12:04:50.831Z,96347.91
2023-08-16T12:07:18.360Z,96339.22
2023-08-16T12:09:47.122Z,96340.25
2023-08-16T12:12:13.757Z,96334.13
2023-08-16T12:14:42.774Z,96334.16
2023-08-16T12:17:09.673Z,96344.31
2023-08-16T12:19:38.269Z,96335.09
2023-08-16T12:22:04.897Z,96340.81
2023-08-16T12:24:33.846Z,96333.69
2023-08-16T12:27:04.228Z,96336.91
2023-08-16T12:29:33.147Z,96315.44
2023-08-16T12:32:02.451Z,96314.97
2023-08-16T12:34:29.455Z,96329.53
2023-08-16T12:36:56.168Z,96327.22
2023-08-16T12:39:23.692Z,96325.94
2023-08-16T12:41:53.269Z,96331.97
2023-08-16T12:44:20.367Z,96328.22
2023-08-16T12:46:50.884Z,96318.50
2023-08-16T12:49:17.949Z,96317.94
2023-08-16T12:51:44.607Z,96309.72
2023-08-16T12:54:11.317Z,96306.41
2023-08-16T12:56:46.611Z,96304.78
2023-08-16T13:02:36.916Z,96307.59
2023-08-16T13:07:50.057Z,96313.09
2023-08-16T13:15:26.149Z,96306.41
2023-08-16T13:18:21.361Z,96291.44
2023-08-16T13:23:12.396Z,96294.78
2023-08-16T13:28:21.128Z,96291.59
2023-08-16T13:30:50.201Z,96283.00
2023-08-16T13:33:44.357Z,96281.38
2023-08-16T13:36:23.275Z,96276.44
2023-08-16T13:38:50.461Z,96274.09
2023-08-16T13:41:24.868Z,96276.09
2023-08-16T13:44:23.307Z,96270.72
2023-08-16T13:46:39.001Z,96262.56
2023-08-16T13:49:06.557Z,96259.38
2023-08-16T13:51:33.551Z,96260.97
2023-08-16T13:54:00.599Z,96257.28
2023-08-16T13:56:32.421Z,96259.97
2023-08-16T13:59:06.497Z,96256.94
2023-08-16T14:02:01.134Z,96262.41
2023-08-16T14:04:28.076Z,96253.22
2023-08-16T14:06:56.601Z,96251.97
2023-08-16T14:09:23.947Z,96257.97
2023-08-16T14:11:51.606Z,96244.72
2023-08-16T14:14:19.172Z,96252.03
2023-08-16T14:16:55.317Z,96248.91
2023-08-16T14:19:22.145Z,96244.53
2023-08-16T14:21:50.318Z,96250.19
2023-08-16T14:24:17.498Z,96249.13
2023-08-16T14:26:44.371Z,96244.22
2023-08-16T14:29:11.170Z,96246.41
2023-08-16T14:31:38.139Z,96244.84
2023-08-16T14:34:05.337Z,96237.59
2023-08-16T14:36:32.268Z,96236.13
2023-08-16T14:39:00.822Z,96229.09
2023-08-16T14:41:27.951Z,96230.75
2023-08-16T14:43:56.807Z,96229.59
2023-08-16T14:46:24.697Z,96235.41
2023-08-16T14:48:52.271Z,96228.66
2023-08-16T14:51:20.301Z,96223.31
2023-08-16T14:53:47.142Z,96226.41
2023-08-16T14:56:14.153Z,96225.16
2023-08-16T14:58:41.935Z,96214.34
2023-08-16T15:01:08.980Z,96217.63
2023-08-16T15:03:36.666Z,96211.00
2023-08-16T15:06:03.475Z,96204.34
2023-08-16T15:08:33.273Z,96215.22
2023-08-16T15:11:00.719Z,96212.38
2023-08-16T15:13:27.374Z,96213.41
2023-08-16T15:15:54.070Z,96211.22
2023-08-16T15:18:21.697Z,96211.25
2023-08-16T15:26:41.579Z,96204.75
2023-08-16T15:32:04.550Z,96197.13
2023-08-16T15:34:32.277Z,96203.09
2023-08-16T15:36:59.334Z,96201.28
2023-08-16T15:39:26.040Z,96195.31
2023-08-16T15:41:52.953Z,96202.88
2023-08-16T15:44:20.449Z,96205.88
2023-08-16T15:46:47.591Z,96197.53
2023-08-16T15:49:14.486Z,96192.75
2023-08-16T15:51:41.928Z,96190.84
2023-08-16T15:54:11.073Z,96190.38
2023-08-16T15:56:37.696Z,96195.31
2023-08-16T15:59:04.347Z,96197.03
2023-08-16T16:01:31.097Z,96192.28
2023-08-16T16:03:57.863Z,96187.59
2023-08-16T16:12:39.953Z,96182.25
2023-08-16T16:15:12.491Z,96184.91
2023-08-16T16:17:39.461Z,96183.91
2023-08-16T16:20:06.424Z,96181.88
2023-08-16T16:22:33.376Z,96185.31
2023-08-16T16:25:00.899Z,96176.03
2023-08-16T16:27:28.149Z,96178.09
2023-08-16T16:29:56.280Z,96182.53
2023-08-16T16:32:25.137Z,96176.91
2023-08-16T16:34:56.325Z,96170.56
2023-08-16T16:40:34.658Z,96172.84
2023-08-16T16:45:54.986Z,96163.28
2023-08-16T16:48:27.984Z,96156.25
2023-08-16T16:50:57.087Z,96150.75
2023-08-16T16:53:24.303Z,96154.94
2023-08-16T16:56:05.970Z,96153.81
2023-08-16T16:58:36.496Z,96152.69
2023-08-16T17:01:06.612Z,96163.84
2023-08-16T17:03:35.630Z,96163.19
2023-08-16T17:06:07.381Z,96165.25
2023-08-16T17:12:30.139Z,96166.50
2023-08-16T17:14:17.892Z,96168.88
2023-08-16T17:17:23.529Z,96167.22
2023-08-16T17:19:37.298Z,96164.09
2023-08-16T17:22:56.897Z,96170.50
2023-08-16T17:24:57.717Z,96172.44
2023-08-16T17:27:36.473Z,96173.78
2023-08-16T17:33:20.248Z,96175.34
2023-08-16T17:35:57.826Z,96184.34
2023-08-16T17:38:43.658Z,96182.75
2023-08-16T17:41:12.493Z,96184.28
2023-08-16T17:43:41.059Z,96183.78
2023-08-16T17:46:08.051Z,96188.22
2023-08-16T17:48:35.843Z,96190.03
2023-08-16T17:51:02.943Z,96187.78
2023-08-16T17:53:29.593Z,96184.41
2023-08-16T17:55:56.493Z,96189.75
2023-08-16T17:58:23.338Z,96200.06
2023-08-16T18:00:52.633Z,96199.88
2023-08-16T18:03:21.069Z,96186.13
2023-08-16T18:05:48.688Z,96193.31
2023-08-16T18:08:15.514Z,96191.63
2023-08-16T18:10:42.034Z,96193.50
2023-08-16T18:13:08.862Z,96191.97
2023-08-16T18:15:35.852Z,96193.28
2023-08-16T18:18:02.583Z,96191.31
2023-08-16T18:20:29.745Z,96187.56
2023-08-16T18:22:56.952Z,96184.13
2023-08-16T18:25:24.014Z,96196.50
2023-08-16T18:27:50.808Z,96187.84
2023-08-16T18:30:18.536Z,96191.66
2023-08-16T18:32:45.196Z,96193.06
2023-08-16T18:35:12.014Z,96192.00
2023-08-16T18:37:39.825Z,96191.16
2023-08-16T18:40:08.023Z,96192.81
2023-08-16T18:42:35.061Z,96194.38
2023-08-16T18:45:01.698Z,96196.75
2023-08-16T18:47:29.438Z,96199.97
2023-08-16T18:49:56.217Z,96196.00
2023-08-16T18:52:26.446Z,96194.19
2023-08-16T18:54:53.335Z,96190.72
2023-08-16T18:57:19.837Z,96190.13
2023-08-16T18:59:46.409Z,96201.63
2023-08-16T19:02:14.006Z,96210.13
2023-08-16T19:04:40.698Z,96211.91
2023-08-16T19:07:07.441Z,96215.41
2023-08-16T19:09:34.969Z,96219.09
2023-08-16T19:12:01.582Z,96229.50
2023-08-16T19:14:28.215Z,96236.31
2023-08-16T19:16:55.002Z,96232.22
2023-08-16T19:19:21.650Z,96235.53
2023-08-16T19:21:48.340Z,96236.66
2023-08-16T19:24:15.057Z,96249.81
2023-08-16T19:26:41.650Z,96244.41
2023-08-16T19:29:08.358Z,96245.38
2023-08-16T19:31:34.912Z,96246.00
2023-08-16T19:34:01.654Z,96248.50
2023-08-16T19:36:28.170Z,96245.75
2023-08-16T19:38:56.097Z,96254.50
2023-08-16T19:41:23.129Z,96246.22
2023-08-16T19:43:50.835Z,96262.03
2023-08-16T19:46:18.164Z,96264.06
2023-08-16T19:48:45.336Z,96257.88
2023-08-16T19:51:12.139Z,96255.66
2023-08-16T19:53:38.871Z,96260.94
2023-08-16T19:56:05.550Z,96253.41
2023-08-16T19:58:32.509Z,96257.63
2023-08-16T20:00:59.206Z,96251.44
2023-08-16T20:03:25.988Z,96258.31
2023-08-16T20:05:52.736Z,96257.06
2023-08-16T20:08:19.706Z,96253.06
2023-08-16T20:10:46.545Z,96267.00
2023-08-16T20:13:13.176Z,96253.94
2023-08-16T20:15:39.754Z,96261.22
2023-08-16T20:18:06.771Z,96260.88
2023-08-16T20:20:33.340Z,96263.59
2023-08-16T20:23:02.621Z,96271.38
2023-08-16T20:25:30.216Z,96267.59
2023-08-16T20:28:00.275Z,96272.84
2023-08-16T20:30:27.139Z,96280.66
2023-08-16T20:32:53.823Z,96271.19
2023-08-16T20:35:20.565Z,96270.28
2023-08-16T20:37:47.232Z,96279.69
2023-08-16T20:40:14.122Z,96266.47
2023-08-16T20:42:40.795Z,96276.88
2023-08-16T20:45:07.536Z,96267.53
2023-08-16T20:47:35.065Z,96265.44
2023-08-16T20:50:02.265Z,96263.50
2023-08-16T20:52:28.878Z,96269.53
2023-08-16T20:54:55.508Z,96269.97
2023-08-16T20:57:22.140Z,96265.84
2023-08-16T20:59:48.782Z,96265.66
2023-08-16T21:02:15.396Z,96262.81
2023-08-16T21:04:41.946Z,96263.19
2023-08-16T21:07:08.886Z,96259.94
2023-08-16T21:09:35.412Z,96257.06
2023-08-16T21:12:05.517Z,96256.50
2023-08-16T21:14:32.493Z,96260.28
2023-08-16T21:17:00.085Z,96260.25
2023-08-16T21:19:30.220Z,96262.69
2023-08-16T21:21:59.506Z,96263.78
2023-08-16T21:24:26.372Z,96269.28
2023-08-16T21:26:53.334Z,96269.53
2023-08-16T21:29:20.052Z,96270.81
2023-08-16T21:31:46.670Z,96269.53
2023-08-16T21:34:13.341Z,96276.00
2023-08-16T21:36:40.199Z,96273.19
2023-08-16T21:39:09.220Z,96274.44
2023-08-16T21:41:35.768Z,96274.34
2023-08-16T21:44:03.055Z,96271.22
2023-08-16T21:46:29.718Z,96278.22
2023-08-16T21:48:56.723Z,96286.03
2023-08-16T21:51:24.745Z,96282.03
2023-08-16T21:53:52.628Z,96291.84
2023-08-16T21:56:19.158Z,96293.69
2023-08-16T21:58:46.109Z,96296.22
2023-08-16T22:01:13.075Z,96296.50
2023-08-16T22:03:39.790Z,96303.13
2023-08-16T22:06:11.584Z,96306.44
2023-08-16T22:08:38.582Z,96314.09
2023-08-16T22:11:06.453Z,96324.13
2023-08-16T22:13:33.128Z,96329.88
2023-08-16T22:16:00.574Z,96333.03
2023-08-16T22:18:33.120Z,96323.28
2023-08-16T22:21:03.842Z,96317.66
2023-08-16T22:23:32.835Z,96315.63
2023-08-16T22:26:01.263Z,96315.34
2023-08-16T22:31:12.878Z,96324.06
2023-08-16T22:33:40.355Z,96323.75
2023-08-16T22:36:09.152Z,96325.19
2023-08-16T22:38:35.984Z,96328.44
2023-08-16T22:41:04.816Z,96320.50
2023-08-16T22:43:31.860Z,96318.25
2023-08-16T22:45:58.706Z,96313.78
2023-08-16T22:48:25.563Z,96309.59
2023-08-16T22:50:55.310Z,96306.28
2023-08-16T22:53:21.970Z,96302.88
2023-08-16T22:55:48.829Z,96304.31
2023-08-16T22:58:16.448Z,96306.16
2023-08-16T23:00:43.634Z,96308.16
2023-08-16T23:03:11.177Z,96307.84
2023-08-16T23:05:39.169Z,96310.06
2023-08-16T23:08:05.717Z,96313.09
2023-08-16T23:10:33.956Z,96315.91
2023-08-16T23:13:00.936Z,96305.56
2023-08-16T23:15:28.978Z,96302.53
2023-08-16T23:17:55.928Z,96313.06
2023-08-16T23:20:23.909Z,96310.97
2023-08-16T23:22:52.652Z,96311.69
2023-08-16T23:25:20.835Z,96305.00
2023-08-16T23:27:49.201Z,96298.41
2023-08-16T23:30:16.573Z,96297.84
2023-08-16T23:32:45.613Z,96295.50
2023-08-16T23:35:12.230Z,96293.59
2023-08-16T23:37:39.131Z,96296.97
2023-08-16T23:40:06.199Z,96298.16
2023-08-16T23:42:33.721Z,96287.38
2023-08-16T23:45:07.411Z,96292.44
2023-08-16T23:47:35.869Z,96286.47
2023-08-16T23:50:03.477Z,96293.34
2023-08-16T23:52:31.918Z,96280.97
2023-08-16T23:54:58.718Z,96287.84
2023-08-16T23:57:26.341Z,96291.69
2023-08-16T23:59:53.107Z,96297.59
